Terminal Aerodrome Forecast
Issued by NWS

Home | Current Version | Previous Version | Text Only | Print | Product List | Glossary On
Versions: 1 2 3 4 5 6 7 8 9 10 11 12 13 14 15 16 17 18 19 20 21 22 23 24 25 26 27
000
FTUS45 KRIW 032100 AAB
TAFPNA
TAF AMD
KPNA 032142Z 0322/0418 14010KT 1 1/2SM -SN SCT008 BKN018
      TEMPO 0322/0323 1/2SM SN BKN006
     FM032300 31015G22KT 5SM -SN BLSN SCT016 BKN030
     FM040100 31012G20KT P6SM SCT020 BKN035
     FM040200 31009KT P6SM SCT040
     FM041700 30015G25KT P6SM SCT050
      AMD LTD TO CLD VIS AND WIND=

USA.gov is the U.S. government's official web portal to all federal, state and local government web resources and services.